Terminal Aerodrome Forecast
Issued by NWS Greer, SC

Home | Current Version | Previous Version | Text Only | Print | Product List | Glossary On
Versions: 1 2 3 4 5 6 7 8 9 10 11 12 13 14 15 16 17 18 19 20 21 22 23 24 25 26
323
FTUS42 KGSP 211729
TAFGSP
TAF
KGSP 211729Z 2118/2218 21007KT P6SM VCSH SCT020 OVC030
      TEMPO 2120/2124 BKN015
     FM220300 16004KT P6SM BKN015 PROB30 2203/2205 4SM -RA OVC008
     FM220500 17005KT 6SM -RA BKN008
     FM220800 19006KT 5SM BR VCSH BKN005
     FM221500 21007KT P6SM BKN009=

USA.gov is the U.S. government's official web portal to all federal, state and local government web resources and services.